createdAt,value
2022-11-16T00:00:22.031Z,7.53
2022-11-16T00:02:28.078Z,7.58
2022-11-16T00:04:35.101Z,7.63
2022-11-16T00:06:41.229Z,7.68
2022-11-16T00:09:14.111Z,7.77
2022-11-16T00:11:23.297Z,7.97
2022-11-16T00:13:29.126Z,8.12
2022-11-16T00:15:34.880Z,8.19
2022-11-16T00:17:41.547Z,8.28
2022-11-16T00:19:47.404Z,8.32
2022-11-16T00:21:53.170Z,8.34
2022-11-16T00:24:00.780Z,8.38
2022-11-16T00:26:09.270Z,8.40
2022-11-16T00:28:18.117Z,8.42
2022-11-16T00:30:25.922Z,8.37
2022-11-16T00:32:32.314Z,8.32
2022-11-16T00:34:38.629Z,8.22
2022-11-16T00:36:45.823Z,8.12
2022-11-16T00:38:56.161Z,8.01
2022-11-16T00:41:01.897Z,7.95
2022-11-16T00:43:08.493Z,7.88
2022-11-16T00:45:17.329Z,7.80
2022-11-16T00:47:23.109Z,7.76
2022-11-16T00:49:29.620Z,7.74
2022-11-16T00:51:36.006Z,7.60
2022-11-16T00:53:43.000Z,7.66
2022-11-16T00:55:51.763Z,7.68
2022-11-16T00:57:59.238Z,7.72
2022-11-16T01:00:05.359Z,7.80
2022-11-16T01:02:16.214Z,7.90
2022-11-16T01:04:22.057Z,7.96
2022-11-16T01:06:27.934Z,8.00
2022-11-16T01:08:35.859Z,7.97
2022-11-16T01:10:44.335Z,7.90
2022-11-16T01:12:50.228Z,7.80
2022-11-16T01:14:57.144Z,7.74
2022-11-16T01:17:04.949Z,7.67
2022-11-16T01:19:13.784Z,7.66
2022-11-16T01:21:21.262Z,7.65
2022-11-16T01:23:27.065Z,7.61
2022-11-16T01:25:32.916Z,7.53
2022-11-16T01:27:40.128Z,7.48
2022-11-16T01:29:50.095Z,7.49
2022-11-16T01:31:56.253Z,7.48
2022-11-16T01:34:03.325Z,7.46
2022-11-16T01:36:17.430Z,7.42
2022-11-16T01:38:28.430Z,7.44
2022-11-16T01:40:41.134Z,7.46
2022-11-16T01:42:47.396Z,7.50
2022-11-16T01:45:26.347Z,7.57
2022-11-16T01:47:37.104Z,7.62
2022-11-16T01:49:51.614Z,7.70
2022-11-16T01:52:10.109Z,7.77
2022-11-16T01:54:18.279Z,7.83
2022-11-16T01:56:51.867Z,7.95
2022-11-16T01:59:06.398Z,8.03
2022-11-16T02:01:13.119Z,8.11
2022-11-16T02:03:25.555Z,8.23
2022-11-16T02:05:53.231Z,8.34
2022-11-16T02:08:40.686Z,8.43
2022-11-16T02:11:15.285Z,8.50
2022-11-16T02:13:45.020Z,8.60
2022-11-16T02:16:03.458Z,8.71
2022-11-16T02:18:29.964Z,8.78
2022-11-16T02:21:26.657Z,8.86
2022-11-16T02:24:23.522Z,8.91
2022-11-16T02:27:04.917Z,8.98
2022-11-16T02:29:31.806Z,9.00
2022-11-16T02:31:47.493Z,9.05
2022-11-16T02:33:59.009Z,9.08
2022-11-16T02:36:15.424Z,9.00
2022-11-16T02:38:31.179Z,9.07
2022-11-16T02:40:47.954Z,9.08
2022-11-16T02:43:10.700Z,9.14
2022-11-16T02:45:27.408Z,9.18
2022-11-16T02:47:38.304Z,9.20
2022-11-16T02:49:57.504Z,9.15
2022-11-16T02:52:04.991Z,9.17
2022-11-16T02:54:17.491Z,9.19
2022-11-16T02:56:28.461Z,9.22
2022-11-16T02:58:35.099Z,9.25
2022-11-16T03:00:54.909Z,9.26
2022-11-16T03:03:23.703Z,9.28
2022-11-16T03:05:38.370Z,9.29
2022-11-16T03:07:53.870Z,9.29
2022-11-16T03:10:05.475Z,9.32
2022-11-16T03:12:20.733Z,9.32
2022-11-16T03:14:37.682Z,9.22
2022-11-16T03:16:53.821Z,9.33
